createdAt,value
2022-09-09T00:01:42.786Z,13.00
2022-09-09T00:07:23.322Z,13.00
2022-09-09T00:12:41.534Z,13.00
2022-09-09T00:18:25.973Z,13.00
2022-09-09T00:23:32.409Z,13.00
2022-09-09T00:28:57.121Z,12.90
2022-09-09T00:34:12.116Z,12.90
2022-09-09T00:39:32.571Z,12.90
2022-09-09T00:44:42.421Z,12.80
2022-09-09T00:50:04.046Z,12.90
2022-09-09T00:55:36.606Z,12.80
2022-09-09T01:01:09.493Z,12.70
2022-09-09T01:06:35.994Z,12.70
2022-09-09T01:12:04.750Z,12.70
2022-09-09T01:18:00.143Z,12.60
2022-09-09T01:23:10.315Z,12.70
2022-09-09T01:28:23.792Z,12.70
2022-09-09T01:33:27.964Z,12.70
2022-09-09T01:38:35.690Z,12.70
2022-09-09T01:43:43.514Z,12.70
2022-09-09T01:48:48.324Z,12.60
2022-09-09T01:53:52.521Z,12.60
2022-09-09T01:59:05.920Z,12.60
2022-09-09T02:04:31.455Z,12.50
2022-09-09T02:09:38.302Z,12.50
2022-09-09T02:14:50.951Z,12.50
2022-09-09T02:20:07.193Z,12.40
2022-09-09T02:25:15.505Z,12.40
2022-09-09T02:30:22.091Z,12.40
2022-09-09T02:35:29.409Z,12.30
2022-09-09T02:40:35.744Z,12.30
2022-09-09T02:46:17.121Z,12.30
2022-09-09T02:51:39.553Z,12.30
2022-09-09T02:56:49.835Z,12.30
2022-09-09T03:01:55.254Z,12.40
2022-09-09T03:07:02.290Z,12.40
2022-09-09T03:12:08.253Z,12.40
2022-09-09T03:17:12.500Z,12.30
2022-09-09T03:22:16.723Z,12.30
2022-09-09T03:27:21.933Z,12.30
2022-09-09T03:32:27.843Z,12.20
2022-09-09T03:37:34.223Z,12.30
2022-09-09T03:42:39.606Z,12.30
2022-09-09T03:47:42.921Z,12.30
2022-09-09T03:52:49.366Z,12.30
2022-09-09T03:57:54.496Z,12.30
2022-09-09T04:02:58.978Z,12.30
2022-09-09T04:08:03.482Z,12.40
2022-09-09T04:13:08.021Z,12.40
2022-09-09T04:18:16.943Z,12.40
2022-09-09T04:23:25.399Z,12.40
2022-09-09T04:28:33.736Z,12.40
2022-09-09T04:33:40.380Z,12.40
2022-09-09T04:38:46.171Z,12.40
2022-09-09T04:43:50.067Z,12.40
2022-09-09T04:48:54.401Z,12.40
2022-09-09T04:53:58.511Z,12.40
2022-09-09T04:59:05.453Z,12.50
2022-09-09T05:04:10.359Z,12.60
2022-09-09T05:09:14.089Z,12.60
2022-09-09T05:14:19.218Z,12.60
2022-09-09T05:19:22.789Z,12.60
2022-09-09T05:24:26.611Z,12.70
2022-09-09T05:29:31.206Z,12.60
2022-09-09T05:34:35.121Z,12.70
2022-09-09T05:39:39.884Z,12.60
2022-09-09T05:44:44.720Z,12.70
2022-09-09T05:49:51.332Z,12.80
2022-09-09T05:54:57.016Z,12.80
2022-09-09T06:00:01.709Z,12.90
2022-09-09T06:05:06.839Z,12.80
2022-09-09T06:10:15.998Z,12.90
2022-09-09T06:15:19.565Z,12.90
2022-09-09T06:20:23.950Z,12.90
2022-09-09T06:25:27.316Z,13.00
2022-09-09T06:30:31.456Z,13.10
2022-09-09T06:35:34.778Z,13.10
2022-09-09T06:40:38.630Z,13.00
2022-09-09T06:45:42.201Z,13.20
2022-09-09T06:50:46.209Z,13.30
2022-09-09T06:55:52.482Z,13.30
2022-09-09T07:01:16.090Z,13.30
2022-09-09T07:06:25.752Z,13.30
2022-09-09T07:11:33.082Z,13.40
2022-09-09T07:16:38.959Z,13.40
2022-09-09T07:21:45.651Z,13.40
2022-09-09T07:26:49.839Z,13.50
2022-09-09T07:31:53.591Z,13.50
2022-09-09T07:36:59.471Z,13.50
2022-09-09T07:42:03.231Z,13.60
2022-09-09T07:47:07.861Z,13.70
2022-09-09T07:52:13.291Z,13.70
2022-09-09T07:57:19.548Z,13.70
2022-09-09T08:02:27.439Z,13.80
2022-09-09T08:07:34.900Z,13.90
2022-09-09T08:12:38.611Z,14.00
2022-09-09T08:17:42.266Z,14.10
2022-09-09T08:22:46.461Z,14.10
2022-09-09T08:27:50.579Z,14.30
2022-09-09T08:32:55.471Z,14.40
2022-09-09T08:38:07.618Z,14.40
2022-09-09T08:43:14.599Z,14.50
2022-09-09T08:48:39.936Z,14.50
2022-09-09T08:53:54.413Z,14.70
2022-09-09T08:59:02.056Z,14.80
2022-09-09T09:04:34.600Z,14.90
2022-09-09T09:10:00.591Z,15.00
2022-09-09T09:15:18.530Z,15.10
2022-09-09T09:20:49.252Z,15.10
2022-09-09T09:25:58.903Z,15.10
2022-09-09T09:31:10.728Z,15.20
2022-09-09T09:36:19.196Z,15.40
2022-09-09T09:41:42.599Z,15.40
2022-09-09T09:46:47.239Z,15.50
2022-09-09T09:51:51.508Z,15.60
2022-09-09T09:56:56.070Z,15.70
2022-09-09T10:02:28.821Z,15.80
2022-09-09T10:07:33.620Z,15.90
2022-09-09T10:13:13.383Z,15.90
2022-09-09T10:18:30.211Z,15.90
2022-09-09T10:24:28.458Z,15.90
2022-09-09T10:29:54.623Z,16.00
2022-09-09T10:35:30.689Z,16.10
2022-09-09T10:40:40.642Z,16.30
2022-09-09T10:46:15.637Z,16.40
2022-09-09T10:51:29.991Z,16.50
2022-09-09T10:57:08.191Z,16.60
2022-09-09T11:02:28.477Z,16.80
2022-09-09T11:07:50.916Z,16.90
2022-09-09T11:13:02.660Z,16.90
2022-09-09T11:18:24.907Z,16.90
2022-09-09T11:23:44.721Z,17.10
2022-09-09T11:29:27.863Z,17.20
2022-09-09T11:35:19.502Z,17.50
2022-09-09T11:40:27.186Z,17.60
2022-09-09T11:45:33.216Z,17.60
2022-09-09T11:50:42.884Z,17.50
2022-09-09T11:55:46.251Z,17.70
2022-09-09T12:00:57.200Z,17.80
2022-09-09T12:06:47.838Z,18.00
2022-09-09T12:11:52.498Z,18.30
2022-09-09T12:16:58.981Z,18.40
2022-09-09T12:22:18.791Z,18.30
2022-09-09T12:27:47.326Z,18.50
2022-09-09T12:33:02.803Z,18.70
2022-09-09T12:38:13.085Z,18.80
2022-09-09T12:43:25.383Z,18.50
2022-09-09T12:48:49.607Z,18.70
2022-09-09T12:53:53.854Z,18.80
2022-09-09T12:58:59.870Z,18.70
2022-09-09T13:04:23.458Z,18.50
2022-09-09T13:09:28.297Z,18.30
2022-09-09T13:14:44.094Z,18.40
2022-09-09T13:19:57.592Z,18.80
2022-09-09T13:25:13.362Z,19.20
2022-09-09T13:30:38.044Z,19.60
2022-09-09T13:35:51.538Z,19.70
2022-09-09T13:41:08.136Z,19.70
2022-09-09T13:46:32.844Z,19.60
2022-09-09T13:51:41.295Z,19.90
2022-09-09T13:56:46.291Z,19.80
2022-09-09T14:01:54.026Z,19.70
2022-09-09T14:06:59.896Z,19.80
2022-09-09T14:12:04.326Z,19.90
2022-09-09T14:17:12.346Z,19.60
2022-09-09T14:22:16.584Z,19.80
2022-09-09T14:27:20.557Z,20.10
2022-09-09T14:32:28.397Z,20.20
2022-09-09T14:37:37.549Z,20.40
2022-09-09T14:42:42.167Z,20.10
2022-09-09T14:47:46.915Z,19.80
2022-09-09T14:52:50.670Z,19.80
2022-09-09T14:57:54.736Z,19.70
2022-09-09T15:02:58.916Z,19.60
2022-09-09T15:08:02.857Z,19.70
2022-09-09T15:13:06.887Z,19.70
2022-09-09T15:18:10.837Z,19.30
2022-09-09T15:23:15.853Z,19.00
2022-09-09T15:28:19.567Z,18.80
2022-09-09T15:33:24.375Z,18.60
2022-09-09T15:38:30.326Z,18.60
2022-09-09T15:43:33.726Z,18.50
2022-09-09T15:53:43.797Z,18.40
2022-09-09T15:58:47.420Z,18.30
2022-09-09T16:03:52.356Z,18.10
2022-09-09T16:08:57.716Z,18.00
2022-09-09T16:14:02.036Z,17.90
2022-09-09T16:19:08.487Z,17.80
2022-09-09T16:24:15.116Z,17.60
2022-09-09T16:29:20.686Z,17.50
2022-09-09T16:34:24.246Z,17.30
2022-09-09T16:39:27.806Z,17.20
2022-09-09T16:44:31.636Z,17.00
2022-09-09T16:49:36.479Z,16.80
2022-09-09T16:54:39.897Z,16.70
2022-09-09T16:59:43.307Z,16.60
2022-09-09T17:04:46.830Z,16.50
2022-09-09T17:09:50.387Z,16.40
2022-09-09T17:14:53.977Z,16.20
2022-09-09T17:19:57.566Z,16.10
2022-09-09T17:25:02.115Z,16.00
2022-09-09T17:30:06.646Z,15.90
2022-09-09T17:35:10.743Z,15.70
2022-09-09T17:40:15.317Z,15.60
2022-09-09T17:45:18.667Z,15.50
2022-09-09T17:50:22.526Z,15.40
2022-09-09T17:55:27.067Z,15.30
2022-09-09T18:00:31.746Z,15.30
2022-09-09T18:05:35.127Z,15.20
2022-09-09T18:10:38.671Z,15.10
2022-09-09T18:15:49.337Z,15.10
2022-09-09T18:21:08.400Z,15.10
2022-09-09T18:26:14.586Z,15.00
2022-09-09T18:31:19.829Z,14.90
2022-09-09T18:36:30.466Z,14.90
2022-09-09T18:41:36.804Z,14.90
2022-09-09T18:46:42.275Z,14.80
2022-09-09T18:51:47.328Z,14.80
2022-09-09T18:56:51.696Z,14.80
2022-09-09T19:01:55.833Z,14.70
2022-09-09T19:06:59.691Z,14.60
2022-09-09T19:12:03.627Z,14.60
2022-09-09T19:17:10.617Z,14.50
2022-09-09T19:22:15.444Z,14.50
2022-09-09T19:27:20.526Z,14.60
2022-09-09T19:37:50.696Z,14.60
2022-09-09T19:42:55.174Z,14.60
2022-09-09T19:48:03.257Z,14.70
2022-09-09T19:53:07.364Z,14.80
2022-09-09T19:58:10.667Z,14.80
2022-09-09T20:03:19.475Z,14.90
2022-09-09T20:08:23.926Z,15.00
2022-09-09T20:13:27.503Z,15.00
2022-09-09T20:18:33.415Z,15.00
2022-09-09T20:23:37.817Z,15.00
2022-09-09T20:28:43.025Z,15.00
2022-09-09T20:33:47.922Z,15.00
2022-09-09T20:38:58.452Z,15.10
2022-09-09T20:44:05.157Z,15.10
2022-09-09T20:49:11.649Z,15.10
2022-09-09T20:54:24.729Z,15.00
2022-09-09T20:59:30.953Z,15.00
2022-09-09T21:04:33.982Z,15.00
2022-09-09T21:09:37.352Z,15.00
2022-09-09T21:14:43.384Z,15.00
2022-09-09T21:19:47.930Z,15.00
2022-09-09T21:24:51.876Z,15.00
2022-09-09T21:29:55.456Z,15.00
2022-09-09T21:35:00.098Z,15.00
2022-09-09T21:40:03.742Z,15.00
2022-09-09T21:45:07.775Z,15.00
2022-09-09T21:50:11.406Z,15.00
2022-09-09T21:55:16.096Z,15.00
2022-09-09T22:00:19.636Z,15.00
2022-09-09T22:05:23.433Z,15.10
2022-09-09T22:10:30.227Z,15.00
2022-09-09T22:15:33.988Z,15.10
2022-09-09T22:20:42.546Z,15.10
2022-09-09T22:25:45.851Z,15.10
2022-09-09T22:30:49.651Z,15.10
2022-09-09T22:35:53.172Z,15.10
2022-09-09T22:40:57.266Z,15.10
2022-09-09T22:46:04.900Z,15.10
2022-09-09T22:51:11.847Z,15.10
2022-09-09T22:56:20.143Z,15.10
2022-09-09T23:01:25.811Z,15.10
2022-09-09T23:06:30.737Z,15.10
2022-09-09T23:11:37.935Z,15.10
2022-09-09T23:16:44.727Z,15.10
2022-09-09T23:21:49.207Z,15.00
2022-09-09T23:26:53.596Z,15.10
2022-09-09T23:31:57.066Z,15.10
2022-09-09T23:37:00.588Z,15.00
2022-09-09T23:42:06.353Z,15.00
2022-09-09T23:47:10.747Z,15.00
2022-09-09T23:52:14.906Z,14.90
2022-09-09T23:57:18.365Z,14.90
